Time;durP1;ratioP1;P1;durP2;ratioP2;P2;SDS_P1;SDS_P2;PMS_P1;PMS_P2;Temp;Humidity;BMP_temperature;BMP_pressure;BME280_temperature;BME280_humidity;BME280_pressure;Samples;Min_cycle;Max_cycle;Signal;HPM_P1;HPM_P2
2022/07/25 00:04:46;;;;;;;2.85;1.50;;;31.40;49.70;;;;;;10404892;28;20132;-45
2022/07/25 00:09:49;;;;;;;1.80;1.70;;;31.30;49.70;;;;;;10411716;28;20494;-40
2022/07/25 00:14:51;;;;;;;3.65;1.80;;;31.30;49.70;;;;;;10413552;28;20128;-43
2022/07/25 00:19:53;;;;;;;3.65;2.03;;;31.30;49.80;;;;;;10410161;28;20447;-43
2022/07/25 00:24:56;;;;;;;2.83;1.80;;;31.20;49.80;;;;;;10406576;28;20454;-40
2022/07/25 00:29:58;;;;;;;3.70;1.95;;;31.20;49.80;;;;;;10398674;28;20053;-46
2022/07/25 00:35:00;;;;;;;1.60;1.50;;;31.20;50.40;;;;;;10407509;28;20083;-46
2022/07/25 00:40:05;;;;;;;1.75;1.50;;;31.10;49.70;;;;;;10408889;28;20072;-40
2022/07/25 00:45:07;;;;;;;2.15;1.63;;;31.10;49.80;;;;;;10397924;28;20100;-42
2022/07/25 00:50:09;;;;;;;2.00;1.60;;;31.10;49.80;;;;;;10410601;28;20069;-42
2022/07/25 00:55:13;;;;;;;1.95;1.60;;;31.10;49.90;;;;;;10395711;28;20462;-45
2022/07/25 01:00:17;;;;;;;2.65;1.58;;;31.00;49.80;;;;;;10402936;28;20046;-40
2022/07/25 01:05:19;;;;;;;2.25;1.77;;;31.00;49.80;;;;;;10403939;28;20072;-44
2022/07/25 01:10:22;;;;;;;1.80;1.60;;;30.90;49.80;;;;;;10392275;28;20144;-44
2022/07/25 01:15:25;;;;;;;3.13;1.48;;;31.00;49.90;;;;;;10409265;28;20120;-41
2022/07/25 01:20:30;;;;;;;1.50;1.20;;;30.90;49.80;;;;;;10406884;28;20486;-44
2022/07/25 01:25:31;;;;;;;2.78;1.70;;;30.90;49.90;;;;;;10408569;28;20464;-41
2022/07/25 01:30:33;;;;;;;3.03;1.40;;;30.80;49.90;;;;;;10391795;28;20139;-41
2022/07/25 01:35:37;;;;;;;3.08;1.45;;;30.80;49.90;;;;;;10397235;28;20486;-40
2022/07/25 01:40:39;;;;;;;2.50;1.55;;;30.80;50.00;;;;;;10402055;28;20216;-41
2022/07/25 01:45:41;;;;;;;2.45;1.75;;;30.80;50.10;;;;;;10394287;28;20077;-42
2022/07/25 01:50:44;;;;;;;2.80;1.80;;;30.70;50.00;;;;;;10397469;28;20103;-44
2022/07/25 01:55:47;;;;;;;2.58;1.88;;;30.70;50.10;;;;;;10403361;28;20059;-43
2022/07/25 02:00:49;;;;;;;2.70;1.65;;;30.70;50.20;;;;;;10410769;28;20075;-42
2022/07/25 02:05:52;;;;;;;1.42;1.30;;;30.70;50.20;;;;;;10403570;28;20460;-42
2022/07/25 02:10:54;;;;;;;1.70;1.60;;;30.60;50.20;;;;;;10395066;28;20069;-40
2022/07/25 02:15:56;;;;;;;3.33;1.50;;;30.60;50.30;;;;;;10391980;28;20456;-43
2022/07/25 02:20:59;;;;;;;1.60;1.48;;;30.50;50.20;;;;;;10407243;28;20111;-40
2022/07/25 02:26:01;;;;;;;1.90;1.50;;;30.50;50.30;;;;;;10409199;28;20045;-43
2022/07/25 02:31:03;;;;;;;2.10;1.40;;;30.50;50.30;;;;;;10394094;28;20132;-41
2022/07/25 02:36:08;;;;;;;3.22;1.45;;;30.50;50.40;;;;;;10396294;28;20041;-41
2022/07/25 02:41:10;;;;;;;2.15;1.42;;;30.40;50.40;;;;;;10404786;28;20530;-41
2022/07/25 02:46:12;;;;;;;2.20;1.60;;;30.40;50.40;;;;;;10404140;28;20129;-48
2022/07/25 02:51:17;;;;;;;1.60;1.40;;;30.40;50.40;;;;;;10402316;28;20046;-44
2022/07/25 02:56:19;;;;;;;1.77;1.23;;;30.40;50.50;;;;;;10416956;28;20474;-42
2022/07/25 03:01:21;;;;;;;3.17;1.45;;;30.30;50.50;;;;;;10411249;28;20092;-44
2022/07/25 03:06:24;;;;;;;2.75;1.70;;;30.30;50.50;;;;;;10402013;28;20095;-43
2022/07/25 03:11:26;;;;;;;4.03;1.80;;;30.30;50.50;;;;;;10416222;28;20077;-43
2022/07/25 03:16:27;;;;;;;1.33;1.20;;;30.30;50.50;;;;;;10408814;28;20128;-41
2022/07/25 03:21:31;;;;;;;1.52;1.42;;;30.20;50.50;;;;;;10419162;28;20084;-42
2022/07/25 03:26:32;;;;;;;1.65;1.55;;;30.20;50.60;;;;;;10415126;28;20083;-46
2022/07/25 03:31:34;;;;;;;1.50;1.40;;;30.20;50.60;;;;;;10388842;28;20128;-48
2022/07/25 03:36:38;;;;;;;1.80;1.35;;;30.20;50.60;;;;;;10414368;28;20080;-43
2022/07/25 03:41:39;;;;;;;1.58;1.30;;;30.10;50.60;;;;;;10400907;28;21369;-41
2022/07/25 03:46:41;;;;;;;3.85;1.60;;;30.10;50.50;;;;;;10391448;28;20045;-46
2022/07/25 03:51:45;;;;;;;2.05;1.35;;;30.10;50.60;;;;;;10409152;28;20045;-39
2022/07/25 03:56:49;;;;;;;2.30;1.33;;;30.10;50.70;;;;;;10415742;28;20132;-41
2022/07/25 04:01:51;;;;;;;3.15;1.30;;;30.00;50.60;;;;;;10408877;28;20478;-44
2022/07/25 04:06:54;;;;;;;6.28;1.58;;;30.00;50.80;;;;;;10412978;28;20080;-41
2022/07/25 04:11:56;;;;;;;3.35;1.05;;;30.00;50.60;;;;;;10404772;28;20052;-43
2022/07/25 04:16:58;;;;;;;1.70;1.40;;;30.00;50.70;;;;;;10411269;28;20115;-47
2022/07/25 04:22:01;;;;;;;2.72;1.70;;;30.00;51.00;;;;;;10405964;28;20382;-42
2022/07/25 04:27:03;;;;;;;1.48;1.00;;;29.90;50.90;;;;;;10380501;28;20069;-40
2022/07/25 04:32:06;;;;;;;3.05;0.98;;;29.80;50.80;;;;;;10396166;28;20056;-40
2022/07/25 04:37:09;;;;;;;1.08;0.95;;;29.80;50.70;;;;;;10391879;28;20546;-43
2022/07/25 04:42:11;;;;;;;1.10;1.00;;;29.80;50.50;;;;;;10396009;28;20054;-41
2022/07/25 04:47:13;;;;;;;4.25;1.20;;;29.80;50.70;;;;;;10387875;28;20080;-45
2022/07/25 04:52:16;;;;;;;1.10;1.00;;;29.70;50.40;;;;;;10382934;28;20046;-44
2022/07/25 04:57:19;;;;;;;1.70;1.00;;;29.70;50.50;;;;;;10405380;28;20051;-43
2022/07/25 05:02:20;;;;;;;1.60;1.10;;;29.80;50.50;;;;;;10401900;28;20037;-47
2022/07/25 05:07:24;;;;;;;4.63;1.10;;;29.70;50.40;;;;;;10404015;28;20777;-41
2022/07/25 05:12:26;;;;;;;2.75;1.15;;;29.70;50.40;;;;;;10406834;28;20128;-42
2022/07/25 05:17:28;;;;;;;4.93;1.10;;;29.70;50.50;;;;;;10408866;28;20049;-43
2022/07/25 05:22:31;;;;;;;2.78;1.23;;;29.70;50.60;;;;;;10403037;28;20139;-45
2022/07/25 05:27:33;;;;;;;3.85;1.30;;;29.60;50.60;;;;;;10397590;28;20453;-43
2022/07/25 05:32:35;;;;;;;4.43;1.20;;;29.60;50.70;;;;;;10397834;28;20133;-44
2022/07/25 05:37:38;;;;;;;4.30;1.33;;;29.50;50.80;;;;;;10392559;28;20053;-42
2022/07/25 05:42:40;;;;;;;6.80;1.30;;;29.60;51.30;;;;;;10385137;28;20068;-41
2022/07/25 05:47:42;;;;;;;3.08;1.60;;;29.60;50.70;;;;;;10402050;28;20409;-45
2022/07/25 05:52:45;;;;;;;5.47;1.05;;;29.50;50.90;;;;;;10401136;28;20064;-44
2022/07/25 05:57:47;;;;;;;5.97;1.00;;;29.60;50.90;;;;;;10397561;28;20103;-45
2022/07/25 06:02:48;;;;;;;4.15;1.02;;;29.50;51.00;;;;;;10408703;28;20534;-43
2022/07/25 06:07:52;;;;;;;1.80;1.00;;;29.50;51.00;;;;;;10400241;28;20037;-41
2022/07/25 06:12:53;;;;;;;3.88;0.90;;;29.50;51.20;;;;;;10403251;28;20069;-46
2022/07/25 06:17:57;;;;;;;4.30;1.02;;;29.40;51.10;;;;;;10401265;28;20474;-42
2022/07/25 06:23:02;;;;;;;2.38;1.00;;;29.40;51.20;;;;;;10397364;28;20122;-42
2022/07/25 06:28:04;;;;;;;4.13;1.10;;;29.40;51.40;;;;;;10398514;28;20128;-42
2022/07/25 06:33:05;;;;;;;4.05;0.93;;;29.40;51.60;;;;;;10386825;28;20042;-40
2022/07/25 06:38:09;;;;;;;3.97;1.30;;;29.30;51.80;;;;;;10386019;28;20061;-45
2022/07/25 06:43:11;;;;;;;5.32;1.08;;;29.30;51.90;;;;;;10385615;28;20450;-42
2022/07/25 06:48:13;;;;;;;4.43;1.52;;;29.30;51.60;;;;;;10383875;28;20132;-40
2022/07/25 06:53:16;;;;;;;7.53;1.25;;;29.30;52.00;;;;;;10389355;28;20092;-40
2022/07/25 06:58:17;;;;;;;10.30;1.15;;;29.30;52.10;;;;;;10405662;28;20068;-43
2022/07/25 07:03:19;;;;;;;5.30;1.30;;;29.30;52.10;;;;;;10401975;28;20128;-46
2022/07/25 07:08:23;;;;;;;4.07;1.13;;;29.40;52.30;;;;;;10386416;28;20136;-41
2022/07/25 07:13:24;;;;;;;6.82;1.42;;;29.40;52.40;;;;;;10385455;28;20063;-42
2022/07/25 07:18:26;;;;;;;6.80;1.50;;;29.40;52.20;;;;;;10412628;28;20076;-43
2022/07/25 07:23:29;;;;;;;3.85;1.10;;;29.30;52.20;;;;;;10393375;28;20095;-40
2022/07/25 07:28:31;;;;;;;6.68;1.42;;;29.50;51.90;;;;;;10403125;28;20077;-43
2022/07/25 07:33:33;;;;;;;6.60;1.90;;;29.60;51.60;;;;;;10385405;28;20123;-45
2022/07/25 07:38:36;;;;;;;13.70;1.50;;;29.70;51.50;;;;;;10379734;28;20124;-42
2022/07/25 07:43:38;;;;;;;6.20;1.17;;;29.70;51.50;;;;;;10401628;28;20100;-42
2022/07/25 07:48:40;;;;;;;6.97;1.35;;;29.60;51.40;;;;;;10396822;28;20121;-41
2022/07/25 07:59:03;;;;;;;3.97;1.00;;;29.60;51.30;;;;;;10387027;28;20118;-45
2022/07/25 08:04:05;;;;;;;8.93;1.63;;;29.50;51.40;;;;;;10382024;28;20038;-39
2022/07/25 08:09:08;;;;;;;6.93;1.45;;;29.50;51.40;;;;;;10379382;28;20033;-41
2022/07/25 08:14:10;;;;;;;4.53;1.17;;;29.40;51.70;;;;;;10393924;28;20069;-43
2022/07/25 08:19:12;;;;;;;6.38;1.15;;;29.50;51.40;;;;;;10383762;28;20048;-41
2022/07/25 08:24:15;;;;;;;7.47;1.90;;;29.50;51.20;;;;;;10397566;28;20046;-46
2022/07/25 08:29:17;;;;;;;8.38;1.77;;;29.40;51.30;;;;;;10400507;28;20435;-46
2022/07/25 08:34:21;;;;;;;11.23;2.38;;;29.30;51.40;;;;;;10403297;28;20107;-41
2022/07/25 08:39:24;;;;;;;4.78;1.27;;;29.30;51.30;;;;;;10398898;28;20115;-42
2022/07/25 08:44:30;;;;;;;10.40;2.22;;;29.30;51.10;;;;;;10399787;28;20069;-50
2022/07/25 08:49:32;;;;;;;4.35;1.33;;;29.30;51.00;;;;;;10404472;28;20052;-40
2022/07/25 08:54:36;;;;;;;14.30;2.78;;;29.30;51.10;;;;;;10400070;28;20099;-42
2022/07/25 08:59:38;;;;;;;14.25;2.33;;;29.30;51.10;;;;;;10396782;28;20132;-41
2022/07/25 09:04:42;;;;;;;8.73;1.85;;;29.20;51.20;;;;;;10396846;28;20186;-41
2022/07/25 09:09:45;;;;;;;8.88;1.67;;;29.20;51.00;;;;;;10406114;28;20552;-48
2022/07/25 09:14:47;;;;;;;14.70;2.30;;;29.10;50.90;;;;;;10408323;28;20480;-42
2022/07/25 09:19:53;;;;;;;6.05;1.90;;;29.20;50.80;;;;;;10405278;28;20048;-43
2022/07/25 09:24:56;;;;;;;12.77;2.50;;;29.30;50.70;;;;;;10387002;28;20037;-42
2022/07/25 09:29:58;;;;;;;8.68;2.08;;;29.20;50.70;;;;;;10383424;28;20557;-43
2022/07/25 09:35:00;;;;;;;14.35;3.10;;;29.30;50.50;;;;;;10389856;28;20153;-46
2022/07/25 09:40:12;;;;;;;11.68;2.63;;;29.30;50.50;;;;;;10383473;28;20548;-45
2022/07/25 09:45:15;;;;;;;11.20;2.53;;;29.30;50.20;;;;;;10378850;28;20041;-42
2022/07/25 09:50:17;;;;;;;9.27;2.40;;;29.40;50.10;;;;;;10392735;28;20140;-40
2022/07/25 09:55:22;;;;;;;7.32;1.77;;;29.50;50.20;;;;;;10401505;28;20047;-44
2022/07/25 10:00:26;;;;;;;8.43;2.22;;;29.30;50.30;;;;;;10393121;28;20113;-42
2022/07/25 10:05:44;;;;;;;11.18;2.92;;;29.40;50.30;;;;;;10395935;28;20058;-42
2022/07/25 10:10:47;;;;;;;14.50;3.10;;;29.30;50.30;;;;;;10382647;28;20099;-45
2022/07/25 10:15:50;;;;;;;15.32;3.20;;;29.20;50.50;;;;;;10401078;28;20046;-45
2022/07/25 10:20:55;;;;;;;11.93;3.28;;;29.20;50.40;;;;;;10400033;28;20132;-46
2022/07/25 10:26:12;;;;;;;15.70;2.95;;;29.30;50.40;;;;;;10381824;28;20033;-41
2022/07/25 10:31:23;;;;;;;13.05;3.22;;;29.40;51.60;;;;;;10389949;28;20056;-45
2022/07/25 10:36:27;;;;;;;12.93;2.72;;;28.90;51.50;;;;;;10387965;28;20046;-47
2022/07/25 10:41:30;;;;;;;12.18;2.70;;;29.10;51.00;;;;;;10378541;28;20112;-47
2022/07/25 10:46:35;;;;;;;9.38;2.50;;;29.20;51.00;;;;;;10389598;28;20076;-44
2022/07/25 10:51:37;;;;;;;12.68;2.88;;;29.20;50.90;;;;;;10405342;28;20140;-42
2022/07/25 10:56:52;;;;;;;12.00;2.80;;;29.10;50.90;;;;;;10379169;28;20065;-44
2022/07/25 11:01:54;;;;;;;12.70;2.05;;;29.10;50.80;;;;;;10379248;28;20045;-44
2022/07/25 11:06:56;;;;;;;8.55;2.00;;;29.20;50.70;;;;;;10394609;28;20073;-43
2022/07/25 11:12:00;;;;;;;12.85;3.55;;;29.20;50.70;;;;;;10387676;28;20141;-45
2022/07/25 11:17:13;;;;;;;13.48;2.50;;;29.30;50.40;;;;;;10406694;28;20042;-44
2022/07/25 11:22:16;;;;;;;12.50;2.33;;;29.30;50.10;;;;;;10407911;28;20053;-47
2022/07/25 11:27:24;;;;;;;6.65;1.23;;;29.30;49.80;;;;;;10399964;28;20100;-44
2022/07/25 11:32:26;;;;;;;8.20;1.75;;;29.20;49.50;;;;;;10401663;28;20046;-44
2022/07/25 11:37:35;;;;;;;11.77;2.58;;;29.20;49.20;;;;;;10410029;28;20125;-43
2022/07/25 11:42:42;;;;;;;14.48;2.40;;;29.40;48.90;;;;;;10400973;28;20054;-44
2022/07/25 11:47:44;;;;;;;10.50;2.42;;;29.40;49.00;;;;;;10385707;28;20506;-45
2022/07/25 11:52:46;;;;;;;12.57;1.90;;;29.30;49.30;;;;;;10400266;28;20072;-44
2022/07/25 11:57:49;;;;;;;9.35;2.17;;;29.30;49.40;;;;;;10397637;28;20042;-48
2022/07/25 12:02:51;;;;;;;9.35;1.85;;;29.40;49.30;;;;;;10411346;28;20424;-45
2022/07/25 12:07:54;;;;;;;10.68;2.05;;;29.40;49.20;;;;;;10406143;28;20052;-48
2022/07/25 12:13:00;;;;;;;13.73;2.50;;;29.40;49.70;;;;;;10410685;28;20041;-44
2022/07/25 12:18:02;;;;;;;14.75;2.22;;;29.50;49.00;;;;;;10407145;28;20050;-44
2022/07/25 12:23:08;;;;;;;8.35;1.60;;;29.50;49.10;;;;;;10403648;28;20084;-45
2022/07/25 12:28:11;;;;;;;15.40;2.53;;;29.50;49.10;;;;;;10383818;28;20041;-41
2022/07/25 12:33:16;;;;;;;7.35;2.22;;;29.50;49.20;;;;;;10406459;28;20045;-45
2022/07/25 12:38:18;;;;;;;17.17;3.08;;;29.50;49.10;;;;;;10403335;28;20052;-43
2022/07/25 12:43:22;;;;;;;18.15;3.13;;;29.40;49.10;;;;;;10409030;28;20041;-44
2022/07/25 12:48:23;;;;;;;11.95;2.38;;;29.40;49.30;;;;;;10408511;28;20546;-44
2022/07/25 12:53:25;;;;;;;9.98;2.50;;;29.40;49.30;;;;;;10406530;28;20047;-45
2022/07/25 12:58:29;;;;;;;11.45;2.22;;;29.40;49.20;;;;;;10405563;28;20069;-43
2022/07/25 13:03:31;;;;;;;13.75;2.03;;;29.40;49.10;;;;;;10410605;28;20103;-42
2022/07/25 13:08:36;;;;;;;10.77;2.22;;;29.60;49.20;;;;;;10393492;28;20143;-43
2022/07/25 13:13:39;;;;;;;17.20;3.65;;;29.60;49.10;;;;;;10404076;28;20461;-49
2022/07/25 13:18:43;;;;;;;14.57;3.45;;;29.70;49.30;;;;;;10405191;28;20124;-45
2022/07/25 13:23:45;;;;;;;18.38;3.00;;;29.70;49.30;;;;;;10405619;28;20119;-46
2022/07/25 13:28:48;;;;;;;8.48;1.63;;;29.70;49.20;;;;;;10397331;28;20478;-45
2022/07/25 13:33:50;;;;;;;11.30;2.05;;;29.80;49.10;;;;;;10388576;28;20065;-49
2022/07/25 13:38:52;;;;;;;13.23;2.50;;;29.80;49.30;;;;;;10396871;28;20140;-47
2022/07/25 13:43:56;;;;;;;11.75;1.90;;;29.80;49.50;;;;;;10380980;28;20482;-43
2022/07/25 13:48:58;;;;;;;15.95;2.25;;;29.80;49.50;;;;;;10381202;28;20037;-47
2022/07/25 13:53:59;;;;;;;10.77;2.15;;;29.70;49.70;;;;;;10384696;28;20041;-48
2022/07/25 13:59:04;;;;;;;10.50;2.08;;;29.80;49.50;;;;;;10386845;28;20157;-46
2022/07/25 14:04:05;;;;;;;14.45;2.22;;;29.90;49.70;;;;;;10389428;28;20052;-46
2022/07/25 14:09:07;;;;;;;15.15;1.83;;;29.90;49.80;;;;;;10380207;28;20038;-44
2022/07/25 14:14:11;;;;;;;17.58;2.97;;;29.90;49.70;;;;;;10387725;28;20041;-44
2022/07/25 14:19:13;;;;;;;11.07;1.65;;;29.90;49.70;;;;;;10379228;28;20034;-47
2022/07/25 14:24:15;;;;;;;15.23;2.25;;;30.00;49.90;;;;;;10381252;28;20069;-46
2022/07/25 14:29:18;;;;;;;9.15;1.20;;;29.90;50.00;;;;;;10398432;28;20447;-42
2022/07/25 14:34:20;;;;;;;11.25;2.25;;;30.00;50.10;;;;;;10397986;28;20041;-43
2022/07/25 14:39:21;;;;;;;11.20;1.80;;;30.00;49.60;;;;;;10393591;28;20104;-46
2022/07/25 14:44:25;;;;;;;22.55;2.53;;;29.90;49.00;;;;;;10397414;28;20087;-43
2022/07/25 14:49:27;;;;;;;9.73;2.00;;;29.90;48.80;;;;;;10399081;28;20048;-47
2022/07/25 14:54:29;;;;;;;12.48;1.85;;;29.90;48.90;;;;;;10409440;28;20441;-41
2022/07/25 14:59:32;;;;;;;10.95;1.75;;;29.90;49.30;;;;;;10411238;28;20093;-45
2022/07/25 15:04:34;;;;;;;11.95;1.90;;;30.00;48.70;;;;;;10402564;28;20363;-46
2022/07/25 15:09:36;;;;;;;4.78;1.00;;;29.90;48.80;;;;;;10412501;28;20556;-45
2022/07/25 15:14:40;;;;;;;10.45;2.65;;;30.00;48.70;;;;;;10401301;28;20446;-47
2022/07/25 15:19:42;;;;;;;13.82;2.53;;;30.00;48.80;;;;;;10407067;28;20042;-44
2022/07/25 15:24:44;;;;;;;25.13;3.15;;;30.00;48.90;;;;;;10411549;28;20458;-46
2022/07/25 15:29:47;;;;;;;16.02;2.00;;;29.80;49.00;;;;;;10407860;28;20189;-46
2022/07/25 15:34:49;;;;;;;14.75;2.78;;;29.80;49.10;;;;;;10413759;28;20548;-43
2022/07/25 15:39:51;;;;;;;15.43;2.67;;;30.00;49.10;;;;;;10403466;28;20123;-45
2022/07/25 15:44:54;;;;;;;18.70;2.72;;;30.00;48.90;;;;;;10409704;28;20073;-47
2022/07/25 15:49:56;;;;;;;14.07;2.63;;;29.90;49.00;;;;;;10410906;28;20049;-47
2022/07/25 15:54:58;;;;;;;10.98;2.60;;;29.90;49.00;;;;;;10411438;28;20144;-48
2022/07/25 16:00:01;;;;;;;14.38;2.88;;;29.80;49.20;;;;;;10410448;28;20143;-47
2022/07/25 16:05:04;;;;;;;16.67;2.40;;;29.70;49.40;;;;;;10401158;28;20068;-45
2022/07/25 16:10:08;;;;;;;14.80;1.85;;;29.80;49.20;;;;;;10396321;28;20081;-46
2022/07/25 16:15:12;;;;;;;11.20;2.38;;;29.80;49.40;;;;;;10403640;28;20144;-43
2022/07/25 16:20:13;;;;;;;14.70;2.00;;;29.80;49.30;;;;;;10400490;28;20069;-43
2022/07/25 16:25:15;;;;;;;9.30;2.08;;;29.70;49.50;;;;;;10395295;28;20137;-41
2022/07/25 16:30:19;;;;;;;8.73;2.10;;;29.80;49.40;;;;;;10392355;28;20139;-48
2022/07/25 16:35:21;;;;;;;15.15;2.15;;;29.90;49.30;;;;;;10405685;28;20045;-45
2022/07/25 16:40:23;;;;;;;10.60;2.00;;;29.90;49.40;;;;;;10403122;28;20132;-48
2022/07/25 16:45:27;;;;;;;7.00;1.83;;;29.80;49.40;;;;;;10390447;28;20099;-43
2022/07/25 16:50:29;;;;;;;11.05;1.75;;;29.70;49.60;;;;;;10402787;28;20474;-43
2022/07/25 16:55:31;;;;;;;9.88;1.75;;;29.70;49.50;;;;;;10404496;28;20133;-41
2022/07/25 17:00:34;;;;;;;14.05;1.75;;;29.70;49.50;;;;;;10405353;28;20045;-44
2022/07/25 17:05:36;;;;;;;10.18;1.80;;;29.70;49.40;;;;;;10407711;28;20163;-45
2022/07/25 17:10:38;;;;;;;12.10;1.70;;;29.60;49.60;;;;;;10396217;28;20144;-46
2022/07/25 17:15:41;;;;;;;6.15;1.17;;;29.70;49.50;;;;;;10382992;28;20069;-46
2022/07/25 17:20:43;;;;;;;11.50;2.03;;;29.70;49.60;;;;;;10382309;28;20038;-44
2022/07/25 17:25:45;;;;;;;13.10;2.30;;;29.60;49.60;;;;;;10391398;28;20076;-44
2022/07/25 17:30:49;;;;;;;7.18;1.33;;;29.70;49.60;;;;;;10385015;28;20081;-45
2022/07/25 17:35:52;;;;;;;5.25;1.70;;;29.60;49.40;;;;;;10402664;28;20490;-47
2022/07/25 17:40:53;;;;;;;13.70;1.88;;;29.60;49.10;;;;;;10401305;28;20054;-46
2022/07/25 17:45:57;;;;;;;5.63;1.20;;;29.70;49.00;;;;;;10407210;28;20042;-49
2022/07/25 17:50:59;;;;;;;9.10;1.85;;;29.70;49.00;;;;;;10408198;28;20149;-45
2022/07/25 17:56:02;;;;;;;6.03;1.50;;;29.70;48.90;;;;;;10402219;28;20437;-46
2022/07/25 18:01:05;;;;;;;14.13;2.60;;;29.60;48.80;;;;;;10400479;28;20168;-44
2022/07/25 18:06:07;;;;;;;7.65;2.03;;;29.60;49.00;;;;;;10394575;28;20489;-44
2022/07/25 18:11:09;;;;;;;7.00;1.88;;;29.60;49.00;;;;;;10377479;28;20057;-44
2022/07/25 18:16:12;;;;;;;6.55;2.00;;;29.60;49.50;;;;;;10380159;28;20046;-46
2022/07/25 18:21:14;;;;;;;8.65;1.40;;;29.60;49.60;;;;;;10404310;28;20064;-42
2022/07/25 18:26:17;;;;;;;13.80;2.20;;;29.60;49.00;;;;;;10394098;28;20045;-46
2022/07/25 18:31:20;;;;;;;8.27;1.85;;;29.50;49.20;;;;;;10395461;28;20046;-46
2022/07/25 18:36:22;;;;;;;13.25;2.00;;;29.50;49.40;;;;;;10383357;28;20107;-48
2022/07/25 18:41:25;;;;;;;4.43;1.25;;;29.60;49.30;;;;;;10386103;28;20119;-42
2022/07/25 18:46:28;;;;;;;3.95;1.35;;;29.60;49.20;;;;;;10392693;28;20425;-45
2022/07/25 18:51:30;;;;;;;13.85;2.70;;;29.60;49.10;;;;;;10376738;28;20058;-43
2022/07/25 18:56:32;;;;;;;8.93;2.35;;;29.60;49.30;;;;;;10375662;28;20498;-47
2022/07/25 19:01:35;;;;;;;8.43;2.03;;;29.50;49.30;;;;;;10380527;28;20085;-47
2022/07/25 19:06:37;;;;;;;11.70;2.60;;;29.60;49.20;;;;;;10387695;28;20065;-46
2022/07/25 19:11:39;;;;;;;7.03;1.98;;;29.50;49.10;;;;;;10388051;28;20492;-46
2022/07/25 19:16:42;;;;;;;6.97;1.90;;;29.50;49.10;;;;;;10400753;28;20073;-47
2022/07/25 19:21:44;;;;;;;10.38;2.35;;;29.50;49.10;;;;;;10391181;28;20074;-44
2022/07/25 19:26:46;;;;;;;10.55;2.40;;;29.50;49.20;;;;;;10392220;28;20057;-43
2022/07/25 19:31:49;;;;;;;11.70;2.30;;;29.50;49.40;;;;;;10390824;28;20081;-43
2022/07/25 19:36:53;;;;;;;19.05;3.30;;;29.50;49.60;;;;;;10394131;28;20049;-49
2022/07/25 19:41:55;;;;;;;6.43;1.45;;;29.40;49.80;;;;;;10402160;28;20140;-46
2022/07/25 19:46:58;;;;;;;12.15;2.13;;;29.30;50.00;;;;;;10382350;28;20096;-50
2022/07/25 19:52:00;;;;;;;7.82;1.95;;;29.40;50.10;;;;;;10392136;28;20046;-46
2022/07/25 19:57:02;;;;;;;7.97;1.98;;;29.40;50.10;;;;;;10399553;28;20145;-50
2022/07/25 20:02:06;;;;;;;6.65;2.13;;;29.40;50.20;;;;;;10402195;28;20533;-48
2022/07/25 20:07:07;;;;;;;8.25;1.67;;;29.40;50.30;;;;;;10398334;28;20041;-49
2022/07/25 20:12:10;;;;;;;8.45;1.85;;;29.30;50.30;;;;;;10376748;28;20149;-46
2022/07/25 20:17:13;;;;;;;11.25;1.80;;;29.40;50.30;;;;;;10380234;28;20041;-48
2022/07/25 20:22:15;;;;;;;13.63;2.20;;;29.30;50.30;;;;;;10375243;28;20041;-46
2022/07/25 20:27:17;;;;;;;7.57;1.85;;;29.40;50.30;;;;;;10386880;28;20069;-48
2022/07/25 20:32:20;;;;;;;12.38;2.80;;;29.40;50.10;;;;;;10394446;28;20126;-46
2022/07/25 20:37:22;;;;;;;8.80;2.33;;;29.40;50.00;;;;;;10388833;28;20532;-46
2022/07/25 20:42:24;;;;;;;20.08;3.40;;;29.30;49.80;;;;;;10391016;28;20080;-43
2022/07/25 20:47:27;;;;;;;8.02;1.77;;;29.20;49.60;;;;;;10396055;28;20133;-45
2022/07/25 20:52:31;;;;;;;14.07;2.53;;;29.20;49.50;;;;;;10394207;28;20136;-45
2022/07/25 20:57:33;;;;;;;7.78;2.08;;;29.20;49.60;;;;;;10399348;28;20525;-48
2022/07/25 21:02:36;;;;;;;11.57;2.50;;;29.20;49.50;;;;;;10402002;28;20065;-45
2022/07/25 21:07:38;;;;;;;12.52;2.33;;;29.20;49.80;;;;;;10411203;28;20072;-45
2022/07/25 21:12:40;;;;;;;16.80;3.40;;;29.20;49.80;;;;;;10385709;28;20459;-42
2022/07/25 21:17:43;;;;;;;19.83;3.33;;;29.10;50.00;;;;;;10398773;28;20045;-48
2022/07/25 21:22:45;;;;;;;17.02;2.90;;;29.10;49.90;;;;;;10394635;28;20069;-44
2022/07/25 21:27:47;;;;;;;22.58;3.10;;;29.10;50.00;;;;;;10390835;28;20527;-48
2022/07/25 21:32:50;;;;;;;9.82;2.35;;;29.00;50.00;;;;;;10395824;28;20077;-46
2022/07/25 21:37:52;;;;;;;11.80;2.85;;;29.00;49.80;;;;;;10404299;28;20093;-47
2022/07/25 21:42:55;;;;;;;11.40;2.50;;;29.00;49.80;;;;;;10397710;28;20057;-44
2022/07/25 21:47:58;;;;;;;9.90;2.00;;;29.00;49.80;;;;;;10385334;28;20142;-41
2022/07/25 21:53:00;;;;;;;19.05;2.50;;;29.00;50.00;;;;;;10399955;28;20080;-43
2022/07/25 21:58:01;;;;;;;13.90;2.70;;;29.00;50.00;;;;;;10400994;28;20120;-40
2022/07/25 22:03:05;;;;;;;7.47;2.13;;;29.00;49.90;;;;;;10395205;28;20139;-42
2022/07/25 22:08:07;;;;;;;10.45;2.17;;;28.80;49.90;;;;;;10395097;28;20461;-44
2022/07/25 22:13:11;;;;;;;10.43;2.40;;;28.80;50.10;;;;;;10395424;28;20092;-41
2022/07/25 22:18:14;;;;;;;8.85;1.98;;;28.90;50.10;;;;;;10393214;28;20042;-43
2022/07/25 22:23:16;;;;;;;11.98;2.58;;;28.80;50.00;;;;;;10397368;28;20045;-43
2022/07/25 22:28:19;;;;;;;8.10;1.50;;;28.80;50.00;;;;;;10393404;28;20148;-44
2022/07/25 22:33:23;;;;;;;17.67;3.40;;;28.80;49.90;;;;;;10397013;28;20143;-43
2022/07/25 22:38:24;;;;;;;11.05;2.13;;;28.80;50.10;;;;;;10398077;28;20116;-46
2022/07/25 22:43:26;;;;;;;12.73;2.80;;;28.80;50.00;;;;;;10389024;28;20080;-42
2022/07/25 22:48:30;;;;;;;11.15;2.35;;;28.80;49.90;;;;;;10399973;28;20053;-45
2022/07/25 22:53:31;;;;;;;14.57;2.03;;;28.70;50.00;;;;;;10402557;28;20532;-50
2022/07/25 22:58:33;;;;;;;6.57;1.65;;;28.70;50.00;;;;;;10403256;28;20501;-42
2022/07/25 23:03:37;;;;;;;6.55;1.90;;;28.60;49.90;;;;;;10401190;28;20107;-45
2022/07/25 23:08:39;;;;;;;14.00;2.00;;;28.70;50.00;;;;;;10396988;28;20073;-46
2022/07/25 23:13:41;;;;;;;9.00;2.00;;;28.70;50.00;;;;;;10420071;28;20088;-43
2022/07/25 23:18:44;;;;;;;11.80;2.20;;;28.60;50.00;;;;;;10411280;28;20081;-45
2022/07/25 23:23:46;;;;;;;4.88;1.23;;;28.60;50.60;;;;;;10406521;28;20149;-45
2022/07/25 23:28:48;;;;;;;4.60;1.40;;;28.50;50.20;;;;;;10412211;28;20041;-47
2022/07/25 23:33:51;;;;;;;7.90;2.00;;;28.50;50.40;;;;;;10413033;28;20045;-44
2022/07/25 23:38:53;;;;;;;5.40;1.35;;;28.50;50.50;;;;;;10405825;28;20077;-47
2022/07/25 23:43:54;;;;;;;7.97;1.50;;;28.50;50.40;;;;;;10405144;28;20373;-42
2022/07/25 23:48:58;;;;;;;5.07;1.27;;;28.50;50.40;;;;;;10403762;28;20037;-47
2022/07/25 23:54:00;;;;;;;3.67;1.20;;;28.50;50.40;;;;;;10403680;28;20136;-45
2022/07/25 23:59:02;;;;;;;2.63;1.00;;;28.40;50.30;;;;;;10401113;28;20545;-42
